createdAt,value
2018-08-03T00:00:42.133Z,101528.53
2018-08-03T00:02:46.958Z,101518.88
2018-08-03T00:04:51.845Z,101525.47
2018-08-03T00:06:56.597Z,101528.48
2018-08-03T00:09:01.491Z,101529.78
2018-08-03T00:11:06.559Z,101525.34
2018-08-03T00:13:11.596Z,101519.69
2018-08-03T00:15:16.344Z,101523.14
2018-08-03T00:17:21.177Z,101517.41
2018-08-03T00:19:26.053Z,101515.26
2018-08-03T00:21:31.164Z,101517.86
2018-08-03T00:23:36.115Z,101512.55
2018-08-03T00:25:40.887Z,101510.91
2018-08-03T00:27:45.990Z,101511.67
2018-08-03T00:29:50.720Z,101506.37
2018-08-03T00:31:55.724Z,101504.61
2018-08-03T00:34:00.468Z,101501.95
2018-08-03T00:36:05.652Z,101511.48
2018-08-03T00:38:10.699Z,101451.56
2018-08-03T00:40:15.479Z,101514.55
2018-08-03T00:42:20.163Z,101507.16
2018-08-03T00:44:25.159Z,101506.70
2018-08-03T00:46:30.262Z,101509.63
2018-08-03T00:48:34.955Z,101495.23
2018-08-03T00:50:39.697Z,101507.06
2018-08-03T00:52:44.695Z,101502.23
2018-08-03T00:54:49.387Z,101502.98
2018-08-03T00:56:54.094Z,101498.14
2018-08-03T00:58:58.855Z,101490.27
2018-08-03T01:01:03.781Z,101505.09
2018-08-03T01:03:09.378Z,101501.05
2018-08-03T01:05:14.216Z,101499.73
2018-08-03T01:07:19.233Z,101499.16
2018-08-03T01:09:23.988Z,101496.64
2018-08-03T01:11:28.840Z,101503.06
2018-08-03T01:13:33.629Z,101503.52
2018-08-03T01:15:38.524Z,101498.28
2018-08-03T01:17:43.371Z,101493.93
2018-08-03T01:19:48.166Z,101498.19
2018-08-03T01:21:53.065Z,101502.11
2018-08-03T01:23:57.797Z,101506.36
2018-08-03T01:26:02.541Z,101503.78
2018-08-03T01:28:09.160Z,101499.41
2018-08-03T01:30:14.122Z,101507.99
2018-08-03T01:32:18.942Z,101501.36
2018-08-03T01:34:23.952Z,101502.73
2018-08-03T01:36:29.008Z,101502.72
2018-08-03T01:38:33.828Z,101500.09
2018-08-03T01:40:39.089Z,101489.48
2018-08-03T01:42:43.851Z,101494.74
2018-08-03T01:44:49.076Z,101491.37
2018-08-03T01:46:53.807Z,101491.59
2018-08-03T01:48:58.526Z,101489.81
2018-08-03T01:51:03.219Z,101490.16
2018-08-03T01:53:08.013Z,101491.03
2018-08-03T01:55:12.751Z,101489.69
2018-08-03T01:57:17.515Z,101489.18
2018-08-03T01:59:22.312Z,101418.98
2018-08-03T02:01:27.244Z,101484.69
2018-08-03T02:03:32.066Z,101489.88
2018-08-03T02:05:37.024Z,101485.97
2018-08-03T02:07:41.778Z,101482.08
2018-08-03T02:09:46.827Z,101483.38
2018-08-03T02:11:51.695Z,101477.70
2018-08-03T02:13:56.551Z,101482.02
2018-08-03T02:16:01.671Z,101485.17
2018-08-03T02:18:06.663Z,101482.58
2018-08-03T02:20:11.481Z,101484.30
2018-08-03T02:22:16.243Z,101478.09
2018-08-03T02:24:21.026Z,101476.30
2018-08-03T02:26:26.569Z,101477.08
2018-08-03T02:28:31.813Z,101480.04
2018-08-03T02:30:36.649Z,101470.11
2018-08-03T02:32:41.790Z,101476.27
2018-08-03T02:34:46.757Z,101473.66
2018-08-03T02:36:51.648Z,101475.86
2018-08-03T02:38:56.438Z,101475.33
2018-08-03T02:41:01.176Z,101476.12
2018-08-03T02:43:05.944Z,101475.23
2018-08-03T02:45:10.812Z,101481.28
2018-08-03T02:47:15.493Z,101479.02
2018-08-03T02:49:20.256Z,101485.38
2018-08-03T02:51:24.984Z,101483.84
2018-08-03T02:53:29.845Z,101482.50
2018-08-03T02:55:34.543Z,101484.17
2018-08-03T02:57:39.434Z,101492.95
2018-08-03T02:59:44.236Z,101494.64
2018-08-03T03:01:49.144Z,101494.89
2018-08-03T03:03:54.079Z,101497.55
2018-08-03T03:05:58.971Z,101494.22
2018-08-03T03:08:03.619Z,101495.63
2018-08-03T03:10:08.444Z,101488.38
2018-08-03T03:12:13.229Z,101488.33
2018-08-03T03:14:18.021Z,101491.06
2018-08-03T03:16:23.089Z,101484.84
2018-08-03T03:18:28.018Z,101485.38
2018-08-03T03:20:33.136Z,101486.08
2018-08-03T03:22:37.737Z,101494.55
2018-08-03T03:24:42.544Z,101492.69
2018-08-03T03:26:47.282Z,101488.28
2018-08-03T03:28:52.182Z,101498.64
2018-08-03T03:30:56.965Z,101491.64
2018-08-03T03:33:01.756Z,101491.67
2018-08-03T03:35:06.973Z,101495.08
2018-08-03T03:37:11.754Z,101490.89
2018-08-03T03:39:16.491Z,101496.44
2018-08-03T03:41:21.415Z,101501.17
2018-08-03T03:43:26.199Z,101496.03
2018-08-03T03:45:31.153Z,101497.31
2018-08-03T03:47:35.963Z,101503.36
2018-08-03T03:49:40.713Z,101500.73
2018-08-03T03:51:45.445Z,101501.66
2018-08-03T03:53:50.202Z,101494.18
2018-08-03T03:55:54.964Z,101497.83
2018-08-03T03:57:59.711Z,101500.09
2018-08-03T04:00:05.280Z,101502.60
2018-08-03T04:02:10.311Z,101504.76
2018-08-03T04:04:15.091Z,101499.90
2018-08-03T04:06:20.575Z,101498.97
2018-08-03T04:08:25.622Z,101505.11
2018-08-03T04:10:30.350Z,101505.49
2018-08-03T04:12:35.293Z,101497.06
2018-08-03T04:14:40.306Z,101498.81
2018-08-03T04:16:45.329Z,101496.72
2018-08-03T04:18:50.401Z,101487.64
2018-08-03T04:20:55.321Z,101489.80
2018-08-03T04:23:00.327Z,101488.87
2018-08-03T04:25:05.246Z,101485.27
2018-08-03T04:27:10.067Z,101488.31
2018-08-03T04:29:14.920Z,101492.27
2018-08-03T04:31:19.738Z,101467.34
2018-08-03T04:33:24.572Z,101488.02
2018-08-03T04:35:29.442Z,101494.11
2018-08-03T04:37:34.471Z,101484.65
2018-08-03T04:39:39.134Z,101487.99
2018-08-03T04:41:44.168Z,101488.06
2018-08-03T04:43:49.029Z,101492.92
2018-08-03T04:45:53.873Z,101484.90
2018-08-03T04:47:58.783Z,101489.34
2018-08-03T04:50:03.736Z,101496.34
2018-08-03T04:52:08.572Z,101499.05
2018-08-03T04:54:13.589Z,101501.27
2018-08-03T04:56:18.465Z,101504.31
2018-08-03T04:58:23.344Z,101501.80
2018-08-03T05:00:28.340Z,101500.92
2018-08-03T05:02:33.494Z,101506.47
2018-08-03T05:04:38.217Z,101503.41
2018-08-03T05:06:42.928Z,101510.83
2018-08-03T05:08:47.841Z,101510.00
2018-08-03T05:10:52.841Z,101506.97
2018-08-03T05:12:57.794Z,101506.52
2018-08-03T05:15:02.738Z,101512.11
2018-08-03T05:17:07.655Z,101510.85
2018-08-03T05:19:12.786Z,101520.50
2018-08-03T05:21:17.672Z,101510.50
2018-08-03T05:23:22.451Z,101513.17
2018-08-03T05:25:27.455Z,101509.27
2018-08-03T05:27:32.763Z,101513.17
2018-08-03T05:29:37.832Z,101513.74
2018-08-03T05:31:42.961Z,101515.50
2018-08-03T05:33:47.784Z,101516.38
2018-08-03T05:35:52.593Z,101514.19
2018-08-03T05:37:57.324Z,101509.04
2018-08-03T05:40:02.149Z,101509.53
2018-08-03T05:42:07.157Z,101509.20
2018-08-03T05:44:11.996Z,101506.22
2018-08-03T05:46:16.812Z,101509.80
2018-08-03T05:48:21.551Z,101498.47
2018-08-03T05:50:26.248Z,101511.16
2018-08-03T05:52:31.031Z,101504.67
2018-08-03T05:54:35.920Z,101503.38
2018-08-03T05:56:40.953Z,101506.94
2018-08-03T05:58:46.160Z,101506.15
2018-08-03T06:00:52.006Z,101512.73
2018-08-03T06:02:56.889Z,101511.90
2018-08-03T06:05:01.590Z,101517.18
2018-08-03T06:07:06.450Z,101510.71
2018-08-03T06:09:11.996Z,101514.70
2018-08-03T06:11:16.808Z,101515.62
2018-08-03T06:13:21.863Z,101514.87
2018-08-03T06:15:27.088Z,101519.28
2018-08-03T06:17:32.134Z,101518.48
2018-08-03T06:19:37.191Z,101522.47
2018-08-03T06:21:41.945Z,101515.54
2018-08-03T06:23:46.685Z,101520.38
2018-08-03T06:25:51.580Z,101517.41
2018-08-03T06:27:56.370Z,101521.80
2018-08-03T06:30:01.179Z,101518.86
2018-08-03T06:32:06.284Z,101515.88
2018-08-03T06:34:11.398Z,101518.55
2018-08-03T06:36:16.292Z,101516.02
2018-08-03T06:38:21.616Z,101523.91
2018-08-03T06:40:26.480Z,101520.89
2018-08-03T06:42:31.547Z,101522.23
2018-08-03T06:44:36.389Z,101519.67
2018-08-03T06:46:41.929Z,101517.97
2018-08-03T06:48:46.785Z,101526.30
2018-08-03T06:50:51.548Z,101527.69
2018-08-03T06:52:56.802Z,101529.04
2018-08-03T06:55:10.547Z,101527.86
2018-08-03T06:57:19.973Z,101523.52
2018-08-03T06:59:24.958Z,101528.37
2018-08-03T07:01:29.894Z,101527.11
2018-08-03T07:03:34.882Z,101529.34
2018-08-03T07:05:39.616Z,101530.24
2018-08-03T07:07:44.421Z,101532.03
2018-08-03T07:09:49.581Z,101529.00
2018-08-03T07:11:54.316Z,101525.09
2018-08-03T07:13:59.115Z,101522.52
2018-08-03T07:16:04.057Z,101527.47
2018-08-03T07:18:09.221Z,101530.54
2018-08-03T07:22:13.377Z,101529.27
2018-08-03T07:24:18.125Z,101529.73
2018-08-03T07:26:23.670Z,101529.31
2018-08-03T07:28:28.622Z,101530.65
2018-08-03T07:30:33.463Z,101530.27
2018-08-03T07:32:38.258Z,101531.16
2018-08-03T07:34:43.108Z,101518.48
2018-08-03T07:36:47.966Z,101528.55
2018-08-03T07:38:52.731Z,101508.45
2018-08-03T07:40:57.569Z,101525.11
2018-08-03T07:43:02.588Z,101526.86
2018-08-03T07:45:08.291Z,101527.34
2018-08-03T07:47:13.079Z,101533.89
2018-08-03T07:49:18.008Z,101538.27
2018-08-03T07:51:22.905Z,101528.63
2018-08-03T07:53:27.634Z,101526.46
2018-08-03T07:55:32.418Z,101533.45
2018-08-03T07:57:37.296Z,101463.04
2018-08-03T07:59:42.256Z,101534.31
2018-08-03T08:01:47.131Z,101519.44
2018-08-03T08:03:53.193Z,101528.20
2018-08-03T08:05:58.053Z,101523.33
2018-08-03T08:08:02.935Z,101521.59
2018-08-03T08:10:07.955Z,101520.70
2018-08-03T08:12:12.785Z,101522.84
2018-08-03T08:14:17.664Z,101514.52
2018-08-03T08:16:22.710Z,101528.47
2018-08-03T08:18:28.144Z,101521.47
2018-08-03T08:20:33.255Z,101516.20
2018-08-03T08:22:39.083Z,101520.97
2018-08-03T08:24:43.929Z,101519.58
2018-08-03T08:26:48.828Z,101512.16
2018-08-03T08:28:53.910Z,101505.59
2018-08-03T08:30:58.875Z,101516.44
2018-08-03T08:33:03.724Z,101511.56
2018-08-03T08:35:08.732Z,101470.48
2018-08-03T08:37:13.700Z,101506.28
2018-08-03T08:39:18.676Z,101508.88
2018-08-03T08:41:23.549Z,101508.78
2018-08-03T08:43:28.533Z,101506.19
2018-08-03T08:45:33.630Z,101502.22
2018-08-03T08:47:38.779Z,101489.94
2018-08-03T08:49:43.560Z,101496.81
2018-08-03T08:51:48.419Z,101496.33
2018-08-03T08:53:52.761Z,101503.72
2018-08-03T08:55:57.622Z,101503.66
2018-08-03T08:58:02.486Z,101500.98
2018-08-03T09:00:07.399Z,101501.77
2018-08-03T09:02:12.273Z,101501.86
2018-08-03T09:04:17.011Z,101498.41
2018-08-03T09:06:22.079Z,101496.64
2018-08-03T09:08:26.891Z,101498.66
2018-08-03T09:10:31.952Z,101495.63
2018-08-03T09:12:37.482Z,101497.36
2018-08-03T09:14:42.318Z,101497.30
2018-08-03T09:16:47.521Z,101495.31
2018-08-03T09:18:53.130Z,101492.62
2018-08-03T09:20:57.986Z,101497.84
2018-08-03T09:23:02.875Z,101490.96
2018-08-03T09:25:08.080Z,101489.71
2018-08-03T09:27:13.952Z,101488.95
2018-08-03T09:29:18.773Z,101487.05
2018-08-03T09:31:23.927Z,101488.61
2018-08-03T09:33:29.015Z,101489.45
2018-08-03T09:35:34.064Z,101478.05
2018-08-03T09:37:38.802Z,101488.65
2018-08-03T09:39:43.858Z,101480.55
2018-08-03T09:41:49.084Z,101483.55
2018-08-03T09:43:54.097Z,101483.06
2018-08-03T09:45:58.907Z,101484.71
2018-08-03T09:48:03.894Z,101478.81
2018-08-03T09:50:08.709Z,101474.02
2018-08-03T09:52:13.443Z,101477.31
2018-08-03T09:54:18.574Z,101477.27
2018-08-03T09:56:30.082Z,101438.58
2018-08-03T09:58:35.115Z,101477.73
2018-08-03T10:00:45.036Z,101476.28
2018-08-03T10:02:49.818Z,101472.14
2018-08-03T10:04:54.568Z,101466.69
2018-08-03T10:06:59.418Z,101469.11
2018-08-03T10:09:05.767Z,101462.69
2018-08-03T10:11:11.466Z,101462.61
2018-08-03T10:13:16.977Z,101461.95
2018-08-03T10:15:21.761Z,101462.51
2018-08-03T10:17:27.150Z,101454.05
2018-08-03T10:19:32.198Z,101455.37
2018-08-03T10:21:37.086Z,101450.05
2018-08-03T10:23:41.946Z,101453.24
2018-08-03T10:25:46.636Z,101450.70
2018-08-03T10:27:51.420Z,101446.56
2018-08-03T10:29:56.496Z,101451.75
2018-08-03T10:32:01.736Z,101443.23
2018-08-03T10:34:06.889Z,101445.32
2018-08-03T10:36:11.718Z,101442.16
2018-08-03T10:38:16.551Z,101437.20
2018-08-03T10:40:21.445Z,101434.11
2018-08-03T10:42:26.560Z,101430.87
2018-08-03T10:44:31.261Z,101431.59
2018-08-03T10:46:35.964Z,101427.66
2018-08-03T10:48:40.944Z,101425.16
2018-08-03T10:50:45.699Z,101423.00
2018-08-03T10:52:50.565Z,101421.01
2018-08-03T10:54:55.419Z,101415.67
2018-08-03T10:57:01.104Z,101417.00
2018-08-03T10:59:05.872Z,101414.23
2018-08-03T11:01:10.865Z,101424.41
2018-08-03T11:03:15.649Z,101415.70
2018-08-03T11:05:20.364Z,101421.25
2018-08-03T11:07:25.368Z,101413.72
2018-08-03T11:09:34.204Z,101410.03
2018-08-03T11:11:40.015Z,101411.70
2018-08-03T11:13:45.741Z,101416.94
2018-08-03T11:15:50.538Z,101418.58
2018-08-03T11:17:56.867Z,101412.52
2018-08-03T11:20:02.493Z,101406.61
2018-08-03T11:22:10.518Z,101404.80
2018-08-03T11:24:15.381Z,101397.00
2018-08-03T11:26:20.515Z,101387.25
2018-08-03T11:28:25.349Z,101399.31
2018-08-03T11:30:30.160Z,101399.95
2018-08-03T11:32:35.167Z,101382.58
2018-08-03T11:34:40.624Z,101398.88
2018-08-03T11:36:45.521Z,101397.09
2018-08-03T11:38:50.337Z,101393.52
2018-08-03T11:40:55.234Z,101394.05
2018-08-03T11:43:00.017Z,101378.65
2018-08-03T11:45:05.395Z,101386.02
2018-08-03T11:47:11.565Z,101391.40
2018-08-03T11:49:16.310Z,101385.16
2018-08-03T11:51:21.347Z,101380.17
2018-08-03T11:53:26.140Z,101381.34
2018-08-03T11:55:30.985Z,101379.76
2018-08-03T11:57:39.067Z,101373.44
2018-08-03T11:59:49.142Z,101382.31
2018-08-03T12:01:54.020Z,101379.11
2018-08-03T12:03:58.786Z,101367.52
2018-08-03T12:06:03.709Z,101361.37
2018-08-03T12:08:08.594Z,101364.03
2018-08-03T12:10:13.395Z,101364.16
2018-08-03T12:12:18.480Z,101363.39
2018-08-03T12:14:23.362Z,101304.63
2018-08-03T12:16:28.255Z,101359.57
2018-08-03T12:18:33.135Z,101353.14
2018-08-03T12:20:38.007Z,101342.94
2018-08-03T12:22:44.072Z,101339.26
2018-08-03T12:24:49.186Z,101347.42
2018-08-03T12:26:55.805Z,101344.80
2018-08-03T12:29:00.702Z,101353.80
2018-08-03T12:31:05.588Z,101348.93
2018-08-03T12:33:10.466Z,101350.86
2018-08-03T12:35:15.373Z,101350.96
2018-08-03T12:37:20.305Z,101345.48
2018-08-03T12:39:25.348Z,101341.75
2018-08-03T12:41:30.363Z,101333.91
2018-08-03T12:43:35.446Z,101332.83
2018-08-03T12:45:40.252Z,101344.38
2018-08-03T12:47:45.738Z,101335.02
2018-08-03T12:49:50.704Z,101327.06
2018-08-03T12:51:55.571Z,101325.89
2018-08-03T12:54:00.448Z,101332.78
2018-08-03T12:56:05.459Z,101326.36
2018-08-03T12:58:10.581Z,101331.85
2018-08-03T13:00:15.692Z,101327.23
2018-08-03T13:02:20.574Z,101320.17
2018-08-03T13:04:25.648Z,101316.41
2018-08-03T13:06:31.071Z,101317.74
2018-08-03T13:08:36.242Z,101320.23
2018-08-03T13:10:41.013Z,101326.14
2018-08-03T13:12:45.860Z,101320.86
2018-08-03T13:14:50.640Z,101319.20
2018-08-03T13:16:55.610Z,101313.66
2018-08-03T13:19:00.770Z,101314.13
2018-08-03T13:21:20.992Z,101319.52
2018-08-03T13:23:25.973Z,101314.48
2018-08-03T13:25:31.195Z,101318.59
2018-08-03T13:27:36.683Z,101306.34
2018-08-03T13:29:41.967Z,101297.50
2018-08-03T13:31:47.223Z,101307.95
2018-08-03T13:33:52.655Z,101278.38
2018-08-03T13:35:57.500Z,101294.60
2018-08-03T13:38:02.471Z,101288.22
2018-08-03T13:40:07.388Z,101293.11
2018-08-03T13:42:12.570Z,101290.77
2018-08-03T13:44:17.499Z,101245.41
2018-08-03T13:46:23.442Z,101292.14
2018-08-03T13:48:28.387Z,101284.80
2018-08-03T13:50:33.509Z,101279.42
2018-08-03T13:52:38.541Z,101279.53
2018-08-03T13:54:43.856Z,101221.75
2018-08-03T13:56:48.959Z,101278.23
2018-08-03T13:58:54.202Z,101275.09
2018-08-03T14:01:15.684Z,101272.20
2018-08-03T14:03:20.642Z,101264.23
2018-08-03T14:05:25.628Z,101215.00
2018-08-03T14:07:30.494Z,101259.04
2018-08-03T14:09:35.446Z,101259.11
2018-08-03T14:11:41.089Z,101267.88
2018-08-03T14:13:46.267Z,101257.59
2018-08-03T14:15:51.006Z,101261.80
2018-08-03T14:18:00.347Z,101258.34
2018-08-03T14:20:06.860Z,101255.68
2018-08-03T14:22:12.328Z,101251.77
2018-08-03T14:24:17.271Z,101246.33
2018-08-03T14:26:22.188Z,101231.03
2018-08-03T14:28:27.236Z,101243.08
2018-08-03T14:30:32.008Z,101242.38
2018-08-03T14:32:36.998Z,101236.39
2018-08-03T14:34:41.924Z,101234.84
2018-08-03T14:36:47.087Z,101232.01
2018-08-03T14:38:51.778Z,101229.80
2018-08-03T14:40:56.937Z,101230.61
2018-08-03T14:43:03.210Z,101225.31
2018-08-03T14:45:10.450Z,101227.63
2018-08-03T14:47:15.535Z,101222.02
2018-08-03T14:49:20.576Z,101216.23
2018-08-03T14:51:25.547Z,101224.73
2018-08-03T14:53:30.412Z,101220.97
2018-08-03T14:55:35.286Z,101221.09
2018-08-03T14:57:40.403Z,101222.02
2018-08-03T14:59:58.571Z,101218.62
2018-08-03T15:02:03.666Z,101212.63
2018-08-03T15:04:08.560Z,101214.31
2018-08-03T15:06:13.344Z,101207.58
2018-08-03T15:08:18.191Z,101206.40
2018-08-03T15:10:23.752Z,101215.70
2018-08-03T15:12:28.628Z,101211.20
2018-08-03T15:14:33.700Z,101207.94
2018-08-03T15:16:38.644Z,101202.30
2018-08-03T15:18:43.996Z,101196.80
2018-08-03T15:20:48.917Z,101205.73
2018-08-03T15:22:53.860Z,101204.72
2018-08-03T15:24:58.613Z,101195.14
2018-08-03T15:27:04.216Z,101194.80
2018-08-03T15:29:09.155Z,101193.96
2018-08-03T15:31:14.107Z,101196.63
2018-08-03T15:33:18.932Z,101194.80
2018-08-03T15:35:23.993Z,101197.83
2018-08-03T15:37:29.109Z,101197.34
2018-08-03T15:39:34.428Z,101196.37
2018-08-03T15:41:39.235Z,101195.06
2018-08-03T15:43:44.276Z,101187.75
2018-08-03T15:45:49.055Z,101189.95
2018-08-03T15:47:53.944Z,101187.75
2018-08-03T15:49:58.802Z,101185.39
2018-08-03T15:52:03.511Z,101186.42
2018-08-03T15:54:08.452Z,101187.09
2018-08-03T15:56:13.409Z,101189.20
2018-08-03T15:58:19.010Z,101188.47
2018-08-03T16:00:23.870Z,101179.62
2018-08-03T16:02:29.272Z,101179.20
2018-08-03T16:04:34.103Z,101178.59
2018-08-03T16:06:38.996Z,101181.75
2018-08-03T16:08:43.812Z,101179.77
2018-08-03T16:10:48.575Z,101179.67
2018-08-03T16:12:56.490Z,101182.37
2018-08-03T16:15:00.966Z,101174.02
2018-08-03T16:17:05.892Z,101171.51
2018-08-03T16:19:10.744Z,101184.09
2018-08-03T16:21:15.667Z,101178.41
2018-08-03T16:23:20.562Z,101171.81
2018-08-03T16:25:25.448Z,101161.19
2018-08-03T16:27:30.590Z,101164.33
2018-08-03T16:29:35.631Z,101163.14
2018-08-03T16:31:40.758Z,101164.16
2018-08-03T16:33:45.739Z,101165.58
2018-08-03T16:35:50.539Z,101169.61
2018-08-03T16:37:55.358Z,101165.73
2018-08-03T16:40:01.107Z,101161.19
2018-08-03T16:42:06.164Z,101158.36
2018-08-03T16:44:11.126Z,101158.05
2018-08-03T16:46:16.013Z,101152.89
2018-08-03T16:48:20.994Z,101151.07
2018-08-03T16:50:25.808Z,101157.23
2018-08-03T16:52:30.937Z,101155.59
2018-08-03T16:54:35.865Z,101168.03
2018-08-03T16:56:40.661Z,101162.50
2018-08-03T16:58:45.573Z,101156.02
2018-08-03T17:00:50.333Z,101157.55
2018-08-03T17:02:55.372Z,101152.95
2018-08-03T17:05:00.190Z,101155.33
2018-08-03T17:07:05.222Z,101157.27
2018-08-03T17:09:10.755Z,101156.52
2018-08-03T17:11:15.703Z,101161.48
2018-08-03T17:13:20.677Z,101160.80
2018-08-03T17:15:25.534Z,101163.25
2018-08-03T17:17:30.339Z,101155.26
2018-08-03T17:19:35.387Z,101161.45
2018-08-03T17:21:40.146Z,101161.75
2018-08-03T17:23:44.921Z,101157.88
2018-08-03T17:25:49.894Z,101157.77
2018-08-03T17:27:54.902Z,101164.59
2018-08-03T17:29:59.927Z,101166.38
2018-08-03T17:32:04.997Z,101160.89
2018-08-03T17:34:09.729Z,101158.88
2018-08-03T17:36:14.855Z,101159.55
2018-08-03T17:38:19.695Z,101162.13
2018-08-03T17:40:24.488Z,101160.72
2018-08-03T17:42:29.566Z,101162.93
2018-08-03T17:44:35.522Z,101155.92
2018-08-03T17:46:40.356Z,101159.28
2018-08-03T17:48:45.304Z,101160.67
2018-08-03T17:50:50.373Z,101154.88
2018-08-03T17:52:55.464Z,101155.58
2018-08-03T17:55:00.508Z,101161.75
2018-08-03T17:57:05.806Z,101157.16
2018-08-03T17:59:10.185Z,101157.22
2018-08-03T18:01:15.056Z,101157.77
2018-08-03T18:03:19.990Z,101161.45
2018-08-03T18:05:24.511Z,101154.98
2018-08-03T18:07:29.049Z,101160.06
2018-08-03T18:09:34.175Z,101161.73
2018-08-03T18:11:39.189Z,101157.65
2018-08-03T18:13:44.183Z,101162.87
2018-08-03T18:15:49.267Z,101154.42
2018-08-03T18:17:54.333Z,101152.30
2018-08-03T18:19:59.376Z,101150.57
2018-08-03T18:22:03.830Z,101152.27
2018-08-03T18:24:08.878Z,101156.50
2018-08-03T18:26:13.315Z,101156.40
2018-08-03T18:28:18.191Z,101156.30
2018-08-03T18:30:23.050Z,101149.98
2018-08-03T18:32:28.005Z,101153.34
2018-08-03T18:34:32.972Z,101155.48
2018-08-03T18:36:38.011Z,101155.86
2018-08-03T18:38:43.173Z,101152.28
2018-08-03T18:40:47.754Z,101151.98
2018-08-03T18:42:52.577Z,101148.05
2018-08-03T18:44:58.629Z,101149.34
2018-08-03T18:47:03.728Z,101148.11
2018-08-03T18:49:08.876Z,101148.42
2018-08-03T18:51:13.963Z,101145.00
2018-08-03T18:53:18.886Z,101144.19
2018-08-03T18:55:24.248Z,101148.59
2018-08-03T18:57:28.762Z,101146.16
2018-08-03T18:59:33.861Z,101146.92
2018-08-03T19:01:38.951Z,101149.11
2018-08-03T19:03:43.871Z,101149.25
2018-08-03T19:05:48.797Z,101138.61
2018-08-03T19:07:53.899Z,101147.50
2018-08-03T19:09:58.845Z,101149.88
2018-08-03T19:12:03.811Z,101151.55
2018-08-03T19:14:08.757Z,101151.36
2018-08-03T19:16:13.768Z,101155.46
2018-08-03T19:18:18.623Z,101153.94
2018-08-03T19:20:23.750Z,101159.93
2018-08-03T19:22:30.573Z,101162.28
2018-08-03T19:24:37.724Z,101164.49
2018-08-03T19:26:46.936Z,101167.41
2018-08-03T19:28:52.615Z,101170.55
2018-08-03T19:30:58.774Z,101170.42
2018-08-03T19:33:03.713Z,101172.33
2018-08-03T19:35:09.955Z,101110.12
2018-08-03T19:37:14.949Z,101178.24
2018-08-03T19:39:21.016Z,101186.79
2018-08-03T19:41:25.974Z,101182.52
2018-08-03T19:43:31.857Z,101186.64
2018-08-03T19:45:37.057Z,101190.98
2018-08-03T19:47:42.066Z,101188.00
2018-08-03T19:49:47.288Z,101193.42
2018-08-03T19:51:52.329Z,101194.93
2018-08-03T19:53:57.444Z,101194.38
2018-08-03T19:56:02.505Z,101197.06
2018-08-03T19:58:07.751Z,101193.55
2018-08-03T20:00:13.137Z,101193.16
2018-08-03T20:02:18.874Z,101203.34
2018-08-03T20:04:23.859Z,101202.55
2018-08-03T20:06:28.921Z,101193.83
2018-08-03T20:08:33.849Z,101201.46
2018-08-03T20:10:39.051Z,101205.91
2018-08-03T20:12:44.726Z,101202.87
2018-08-03T20:14:49.933Z,101200.83
2018-08-03T20:16:55.070Z,101205.30
2018-08-03T20:21:02.743Z,101204.27
2018-08-03T20:23:08.130Z,101203.88
2018-08-03T20:25:14.355Z,101202.65
2018-08-03T20:27:19.579Z,101196.09
2018-08-03T20:29:34.683Z,101202.77
2018-08-03T20:31:39.993Z,101202.59
2018-08-03T20:33:45.126Z,101199.69
2018-08-03T20:35:49.610Z,101198.09
2018-08-03T20:37:54.625Z,101210.09
2018-08-03T20:39:59.584Z,101201.36
2018-08-03T20:42:04.547Z,101209.31
2018-08-03T20:44:09.476Z,101198.94
2018-08-03T20:46:14.491Z,101203.45
2018-08-03T20:48:19.602Z,101214.45
2018-08-03T20:50:24.964Z,101207.70
2018-08-03T20:52:30.356Z,101213.62
2018-08-03T20:54:35.538Z,101209.08
2018-08-03T20:56:40.402Z,101210.59
2018-08-03T20:58:45.353Z,101209.69
2018-08-03T21:00:50.267Z,101209.44
2018-08-03T21:02:55.144Z,101212.16
2018-08-03T21:04:59.920Z,101212.22
2018-08-03T21:07:04.725Z,101217.02
2018-08-03T21:09:11.745Z,101207.42
2018-08-03T21:11:16.555Z,101209.49
2018-08-03T21:13:21.728Z,101201.86
2018-08-03T21:15:26.596Z,101211.10
2018-08-03T21:17:31.504Z,101212.87
2018-08-03T21:19:36.405Z,101212.38
2018-08-03T21:21:47.752Z,101212.45
2018-08-03T21:23:52.720Z,101220.37
2018-08-03T21:25:57.632Z,101217.47
2018-08-03T21:28:02.509Z,101217.02
2018-08-03T21:30:12.194Z,101217.47
2018-08-03T21:32:16.969Z,101213.70
2018-08-03T21:34:21.780Z,101212.79
2018-08-03T21:36:26.838Z,101217.59
2018-08-03T21:38:42.910Z,101221.23
2018-08-03T21:40:47.659Z,101212.91
2018-08-03T21:42:52.457Z,101219.02
2018-08-03T21:44:56.903Z,101218.71
2018-08-03T21:47:02.026Z,101212.16
2018-08-03T21:49:07.132Z,101212.25
2018-08-03T21:51:11.979Z,101209.31
2018-08-03T21:53:17.547Z,101204.56
2018-08-03T21:55:22.580Z,101204.62
2018-08-03T21:57:27.421Z,101200.06
2018-08-03T21:59:31.878Z,101201.14
2018-08-03T22:01:36.614Z,101197.34
2018-08-03T22:03:41.803Z,101200.03
2018-08-03T22:05:46.687Z,101191.33
2018-08-03T22:07:51.435Z,101191.38
2018-08-03T22:09:56.118Z,101183.55
2018-08-03T22:12:01.017Z,101186.14
2018-08-03T22:14:05.767Z,101190.09
2018-08-03T22:16:13.012Z,101187.07
2018-08-03T22:18:17.799Z,101185.35
2018-08-03T22:20:22.693Z,101184.09
2018-08-03T22:22:27.703Z,101181.45
2018-08-03T22:24:32.597Z,101182.36
2018-08-03T22:26:37.388Z,101182.00
2018-08-03T22:28:42.679Z,101182.03
2018-08-03T22:30:49.553Z,101181.56
2018-08-03T22:32:54.310Z,101181.15
2018-08-03T22:34:58.978Z,101171.46
2018-08-03T22:37:03.532Z,101184.63
2018-08-03T22:39:11.108Z,101130.22
2018-08-03T22:41:18.541Z,101181.59
2018-08-03T22:43:26.451Z,101180.67
2018-08-03T22:45:32.104Z,101181.95
2018-08-03T22:47:39.441Z,101183.70
2018-08-03T22:49:47.224Z,101178.11
2018-08-03T22:51:51.989Z,101185.87
2018-08-03T22:53:56.687Z,101176.42
2018-08-03T22:56:01.440Z,101177.77
2018-08-03T22:58:06.418Z,101179.45
2018-08-03T23:00:11.270Z,101180.80
2018-08-03T23:02:17.557Z,101177.30
2018-08-03T23:04:22.262Z,101169.33
2018-08-03T23:06:27.010Z,101171.63
2018-08-03T23:08:31.829Z,101175.28
2018-08-03T23:10:39.022Z,101174.00
2018-08-03T23:12:43.755Z,101174.42
2018-08-03T23:14:48.987Z,101175.80
2018-08-03T23:16:55.962Z,101177.16
2018-08-03T23:19:00.835Z,101177.13
2018-08-03T23:21:05.742Z,101172.80
2018-08-03T23:23:10.634Z,101177.95
2018-08-03T23:25:15.448Z,101179.22
2018-08-03T23:27:20.262Z,101179.31
2018-08-03T23:29:25.335Z,101173.19
2018-08-03T23:31:31.591Z,101172.78
2018-08-03T23:33:36.366Z,101171.95
2018-08-03T23:35:41.315Z,101167.19
2018-08-03T23:37:46.303Z,101139.73
2018-08-03T23:39:51.156Z,101162.41
2018-08-03T23:41:55.906Z,101161.16
2018-08-03T23:44:01.035Z,101161.60
2018-08-03T23:46:06.183Z,101156.81
2018-08-03T23:48:10.976Z,101157.24
2018-08-03T23:50:17.961Z,101101.91
2018-08-03T23:52:22.932Z,101157.27